createdAt,value
2022-08-22T00:00:14.533Z,83.23
2022-08-22T00:01:14.516Z,83.06
2022-08-22T00:02:14.555Z,83.26
2022-08-22T00:02:58.608Z,72.53
2022-08-22T00:03:00.127Z,70.49
2022-08-22T00:03:11.929Z,78.02
2022-08-22T00:03:12.015Z,80.63
2022-08-22T00:03:18.744Z,83.26
2022-08-22T00:04:14.503Z,83.67
2022-08-22T00:05:14.480Z,83.57
2022-08-22T00:06:14.466Z,83.57
2022-08-22T00:07:14.446Z,83.67
2022-08-22T00:08:14.455Z,83.47
2022-08-22T00:09:14.448Z,84.07
2022-08-22T00:10:21.027Z,83.97
2022-08-22T00:11:15.404Z,83.47
2022-08-22T00:12:14.398Z,83.57
2022-08-22T00:13:14.398Z,83.97
2022-08-22T00:14:14.383Z,83.47
2022-08-22T00:15:41.907Z,83.47
2022-08-22T00:16:15.351Z,83.57
2022-08-22T00:17:14.339Z,84.67
2022-08-22T00:18:14.334Z,83.76
2022-08-22T00:19:14.334Z,83.67
2022-08-22T00:20:14.312Z,83.76
2022-08-22T00:21:14.293Z,83.67
2022-08-22T00:22:14.286Z,83.91
2022-08-22T00:23:14.273Z,83.91
2022-08-22T00:24:14.281Z,83.81
2022-08-22T00:25:22.839Z,84.01
2022-08-22T00:26:15.248Z,83.81
2022-08-22T00:27:14.231Z,84.41
2022-08-22T00:28:14.224Z,84.51
2022-08-22T00:29:14.223Z,84.41
2022-08-22T00:30:14.197Z,84.45
2022-08-22T00:31:14.195Z,84.65
2022-08-22T00:32:14.180Z,84.71
2022-08-22T00:33:14.164Z,84.85
2022-08-22T00:34:14.160Z,84.95
2022-08-22T00:35:14.139Z,84.75
2022-08-22T00:36:14.151Z,85.36
2022-08-22T00:37:14.120Z,84.85
2022-08-22T00:38:14.111Z,85.05
2022-08-22T00:39:14.107Z,84.85
2022-08-22T00:40:14.133Z,85.16
2022-08-22T00:41:14.083Z,84.89
2022-08-22T00:42:14.073Z,84.95
2022-08-22T00:43:14.051Z,85.25
2022-08-22T00:44:14.053Z,85.00
2022-08-22T00:45:14.031Z,85.30
2022-08-22T00:46:14.020Z,85.56
2022-08-22T00:47:14.005Z,85.70
2022-08-22T00:48:14.549Z,85.30
2022-08-22T00:49:13.996Z,85.80
2022-08-22T00:50:13.975Z,85.30
2022-08-22T00:51:13.964Z,85.80
2022-08-22T00:52:13.956Z,85.40
2022-08-22T00:53:13.939Z,85.60
2022-08-22T00:54:17.820Z,85.60
2022-08-22T00:55:13.919Z,85.90
2022-08-22T00:56:13.916Z,85.90
2022-08-22T00:57:13.904Z,85.80
2022-08-22T00:58:13.888Z,85.70
2022-08-22T00:59:23.843Z,86.10
2022-08-22T01:00:14.883Z,85.64
2022-08-22T01:01:13.942Z,86.04
2022-08-22T01:02:13.860Z,85.74
2022-08-22T01:03:13.831Z,86.04
2022-08-22T01:04:13.823Z,86.15
2022-08-22T01:05:13.823Z,85.94
2022-08-22T01:06:13.797Z,86.04
2022-08-22T01:07:13.780Z,86.24
2022-08-22T01:08:13.801Z,86.44
2022-08-22T01:09:13.761Z,86.55
2022-08-22T01:10:13.774Z,86.65
2022-08-22T01:11:13.738Z,86.44
2022-08-22T01:12:13.731Z,86.65
2022-08-22T01:13:13.719Z,86.44
2022-08-22T01:14:13.710Z,86.75
2022-08-22T01:15:13.697Z,86.49
2022-08-22T01:16:13.701Z,86.15
2022-08-22T01:17:13.674Z,86.04
2022-08-22T01:18:13.667Z,86.38
2022-08-22T01:19:13.658Z,86.49
2022-08-22T01:20:13.640Z,86.08
2022-08-22T01:21:13.637Z,86.75
2022-08-22T01:22:13.620Z,86.58
2022-08-22T01:23:13.604Z,86.58
2022-08-22T01:24:13.598Z,86.44
2022-08-22T01:25:13.578Z,86.58
2022-08-22T01:26:13.582Z,86.58
2022-08-22T01:27:13.574Z,86.49
2022-08-22T01:28:13.553Z,86.58
2022-08-22T01:29:13.534Z,87.19
2022-08-22T01:30:13.527Z,86.89
2022-08-22T01:31:13.531Z,87.49
2022-08-22T01:32:13.506Z,87.19
2022-08-22T01:33:13.489Z,86.99
2022-08-22T01:34:13.482Z,86.99
2022-08-22T01:35:13.468Z,87.49
2022-08-22T01:36:13.474Z,87.84
2022-08-22T01:37:13.462Z,87.09
2022-08-22T01:38:13.451Z,87.70
2022-08-22T01:39:13.431Z,87.74
2022-08-22T01:40:13.473Z,87.80
2022-08-22T01:41:13.407Z,87.34
2022-08-22T01:42:13.417Z,87.23
2022-08-22T01:43:13.385Z,87.03
2022-08-22T01:44:13.370Z,87.13
2022-08-22T01:45:13.360Z,87.13
2022-08-22T01:46:13.345Z,87.34
2022-08-22T01:47:14.366Z,87.34
2022-08-22T01:48:13.324Z,87.43
2022-08-22T01:49:13.318Z,87.13
2022-08-22T01:50:13.304Z,87.13
2022-08-22T01:51:13.290Z,87.03
2022-08-22T01:52:13.298Z,87.34
2022-08-22T01:53:13.270Z,87.38
2022-08-22T01:54:13.257Z,87.23
2022-08-22T01:55:13.249Z,87.27
2022-08-22T01:56:13.238Z,87.63
2022-08-22T01:57:13.251Z,87.18
2022-08-22T01:58:13.221Z,87.27
2022-08-22T01:59:13.199Z,87.48
2022-08-22T02:00:13.205Z,87.68
2022-08-22T02:01:13.200Z,87.78
2022-08-22T02:02:13.172Z,87.48
2022-08-22T02:03:13.168Z,88.18
2022-08-22T02:04:13.153Z,88.18
2022-08-22T02:05:13.134Z,88.04
2022-08-22T02:06:14.511Z,87.88
2022-08-22T02:07:13.113Z,87.58
2022-08-22T02:08:13.112Z,88.08
2022-08-22T02:09:13.096Z,88.18
2022-08-22T02:10:13.079Z,87.38
2022-08-22T02:11:13.067Z,87.58
2022-08-22T02:12:21.543Z,87.38
2022-08-22T02:13:14.056Z,87.48
2022-08-22T02:14:13.041Z,87.68
2022-08-22T02:15:13.027Z,87.88
2022-08-22T02:16:13.018Z,88.39
2022-08-22T02:17:13.002Z,88.18
2022-08-22T02:18:13.005Z,88.18
2022-08-22T02:19:12.978Z,87.98
2022-08-22T02:20:12.971Z,87.88
2022-08-22T02:21:12.959Z,88.08
2022-08-22T02:22:12.944Z,87.52
2022-08-22T02:23:12.959Z,88.18
2022-08-22T02:24:12.926Z,88.08
2022-08-22T02:25:12.909Z,87.58
2022-08-22T02:26:12.906Z,87.78
2022-08-22T02:27:12.886Z,88.28
2022-08-22T02:28:12.884Z,88.18
2022-08-22T02:29:12.871Z,88.39
2022-08-22T02:30:12.857Z,88.32
2022-08-22T02:31:16.628Z,88.39
2022-08-22T02:32:12.839Z,88.28
2022-08-22T02:33:12.836Z,88.53
2022-08-22T02:34:12.830Z,88.53
2022-08-22T02:35:12.794Z,88.08
2022-08-22T02:36:12.785Z,88.28
2022-08-22T02:37:12.776Z,88.39
2022-08-22T02:38:12.772Z,87.78
2022-08-22T02:39:12.769Z,88.23
2022-08-22T02:40:12.806Z,87.92
2022-08-22T02:41:12.732Z,87.72
2022-08-22T02:42:12.720Z,88.43
2022-08-22T02:43:12.705Z,88.12
2022-08-22T02:44:12.713Z,88.32
2022-08-22T02:45:12.686Z,88.32
2022-08-22T02:46:12.674Z,87.82
2022-08-22T02:47:12.667Z,87.96
2022-08-22T02:48:12.653Z,87.82
2022-08-22T02:49:12.660Z,87.72
2022-08-22T02:50:13.149Z,88.02
2022-08-22T02:51:12.624Z,88.02
2022-08-22T02:52:12.609Z,88.12
2022-08-22T02:53:12.591Z,88.02
2022-08-22T02:54:12.583Z,88.43
2022-08-22T02:55:12.585Z,88.23
2022-08-22T02:56:12.578Z,88.37
2022-08-22T02:57:14.502Z,88.17
2022-08-22T02:58:12.550Z,88.17
2022-08-22T02:59:12.522Z,88.17
2022-08-22T03:00:31.819Z,88.37
2022-08-22T03:01:13.531Z,88.06
2022-08-22T03:02:12.496Z,88.06
2022-08-22T03:03:12.480Z,88.06
2022-08-22T03:04:12.472Z,87.76
2022-08-22T03:05:12.464Z,88.26
2022-08-22T03:06:12.469Z,88.17
2022-08-22T03:07:12.436Z,88.17
2022-08-22T03:08:12.986Z,88.17
2022-08-22T03:09:12.423Z,88.26
2022-08-22T03:10:12.406Z,88.21
2022-08-22T03:11:12.410Z,88.26
2022-08-22T03:12:12.401Z,88.37
2022-08-22T03:13:12.375Z,88.31
2022-08-22T03:14:12.371Z,88.10
2022-08-22T03:15:12.351Z,88.92
2022-08-22T03:16:12.357Z,89.22
2022-08-22T03:17:12.336Z,89.32
2022-08-22T03:18:12.324Z,89.32
2022-08-22T03:19:18.447Z,88.81
2022-08-22T03:20:13.300Z,89.01
2022-08-22T03:21:12.290Z,89.01
2022-08-22T03:22:12.272Z,89.12
2022-08-22T03:23:12.274Z,89.16
2022-08-22T03:24:12.249Z,89.22
2022-08-22T03:25:12.235Z,88.61
2022-08-22T03:26:12.238Z,88.92
2022-08-22T03:27:12.215Z,89.66
2022-08-22T03:28:12.207Z,88.81
2022-08-22T03:29:12.204Z,89.42
2022-08-22T03:30:12.181Z,89.66
2022-08-22T03:31:12.177Z,89.16
2022-08-22T03:32:12.161Z,89.16
2022-08-22T03:33:12.148Z,89.36
2022-08-22T03:34:12.150Z,89.76
2022-08-22T03:35:12.139Z,89.46
2022-08-22T03:36:12.118Z,89.16
2022-08-22T03:37:12.104Z,89.26
2022-08-22T03:38:12.093Z,89.36
2022-08-22T03:39:17.391Z,89.36
2022-08-22T03:40:12.159Z,89.46
2022-08-22T03:41:12.061Z,89.36
2022-08-22T03:42:12.068Z,89.16
2022-08-22T03:43:12.038Z,89.36
2022-08-22T03:44:12.048Z,89.06
2022-08-22T03:45:12.023Z,89.36
2022-08-22T03:46:12.015Z,89.20
2022-08-22T03:47:11.997Z,88.65
2022-08-22T03:48:11.991Z,89.26
2022-08-22T03:49:11.977Z,88.65
2022-08-22T03:50:11.978Z,88.85
2022-08-22T03:51:11.948Z,89.16
2022-08-22T03:52:11.962Z,88.96
2022-08-22T03:53:18.800Z,88.85
2022-08-22T03:54:12.913Z,89.56
2022-08-22T03:55:11.919Z,89.36
2022-08-22T03:56:11.893Z,89.36
2022-08-22T03:57:11.900Z,89.46
2022-08-22T03:58:15.854Z,89.46
2022-08-22T03:59:12.877Z,89.16
2022-08-22T04:00:11.859Z,89.16
2022-08-22T04:01:11.910Z,89.26
2022-08-22T04:02:42.134Z,89.26
2022-08-22T04:03:12.841Z,89.26
2022-08-22T04:04:11.810Z,89.56
2022-08-22T04:05:11.808Z,89.66
2022-08-22T04:06:13.003Z,89.56
2022-08-22T04:07:32.216Z,89.56
2022-08-22T04:08:13.166Z,89.56
2022-08-22T04:09:11.765Z,89.76
2022-08-22T04:10:11.746Z,89.56
2022-08-22T04:11:11.730Z,90.11
2022-08-22T04:12:11.727Z,89.76
2022-08-22T04:13:11.711Z,89.76
2022-08-22T04:14:11.710Z,89.56
2022-08-22T04:15:11.713Z,89.97
2022-08-22T04:16:11.677Z,89.81
2022-08-22T04:17:11.664Z,89.87
2022-08-22T04:18:11.655Z,89.66
2022-08-22T04:19:11.652Z,89.70
2022-08-22T04:20:11.628Z,89.50
2022-08-22T04:21:11.631Z,89.50
2022-08-22T04:22:11.613Z,89.70
2022-08-22T04:23:11.599Z,89.40
2022-08-22T04:24:11.598Z,89.61
2022-08-22T04:25:11.575Z,89.81
2022-08-22T04:26:12.443Z,89.81
2022-08-22T04:27:11.556Z,90.01
2022-08-22T04:28:11.538Z,90.31
2022-08-22T04:29:11.539Z,90.52
2022-08-22T04:30:11.532Z,90.72
2022-08-22T04:31:11.526Z,90.41
2022-08-22T04:32:14.582Z,90.41
2022-08-22T04:33:11.520Z,90.41
2022-08-22T04:34:11.475Z,90.67
2022-08-22T04:35:11.469Z,90.78
2022-08-22T04:36:11.465Z,91.08
2022-08-22T04:37:11.449Z,90.47
2022-08-22T04:38:11.433Z,90.37
2022-08-22T04:39:11.431Z,90.17
2022-08-22T04:40:11.467Z,90.47
2022-08-22T04:41:11.409Z,90.98
2022-08-22T04:42:31.730Z,90.37
2022-08-22T04:43:12.385Z,90.67
2022-08-22T04:44:11.363Z,90.47
2022-08-22T04:45:11.364Z,90.67
2022-08-22T04:46:11.358Z,90.88
2022-08-22T04:47:11.339Z,90.88
2022-08-22T04:48:11.325Z,91.08
2022-08-22T04:49:11.319Z,90.53
2022-08-22T04:50:11.297Z,90.53
2022-08-22T04:51:11.312Z,90.73
2022-08-22T04:52:11.276Z,90.73
2022-08-22T04:53:11.268Z,90.43
2022-08-22T04:54:11.259Z,90.83
2022-08-22T04:55:11.242Z,91.44
2022-08-22T04:56:11.238Z,91.44
2022-08-22T04:57:11.226Z,91.44
2022-08-22T04:58:11.210Z,91.74
2022-08-22T04:59:11.198Z,91.44
2022-08-22T05:00:11.183Z,91.03
2022-08-22T05:01:11.192Z,91.24
2022-08-22T05:02:11.171Z,91.34
2022-08-22T05:03:11.160Z,91.34
2022-08-22T05:04:11.145Z,91.54
2022-08-22T05:05:13.372Z,91.34
2022-08-22T05:06:11.151Z,91.30
2022-08-22T05:07:11.135Z,91.39
2022-08-22T05:08:11.627Z,91.30
2022-08-22T05:09:15.925Z,91.30
2022-08-22T05:10:12.645Z,91.70
2022-08-22T05:11:11.069Z,91.50
2022-08-22T05:12:11.080Z,91.55
2022-08-22T05:13:11.045Z,91.55
2022-08-22T05:14:11.040Z,91.76
2022-08-22T05:15:11.023Z,91.25
2022-08-22T05:16:11.031Z,91.21
2022-08-22T05:17:11.004Z,91.31
2022-08-22T05:18:10.984Z,91.05
2022-08-22T05:19:14.420Z,90.95
2022-08-22T05:20:11.965Z,90.41
2022-08-22T05:21:11.181Z,90.75
2022-08-22T05:22:11.000Z,91.01
2022-08-22T05:23:17.418Z,91.11
2022-08-22T05:24:11.920Z,91.31
2022-08-22T05:25:10.915Z,91.21
2022-08-22T05:26:10.894Z,90.91
2022-08-22T05:27:10.885Z,91.21
2022-08-22T05:28:10.887Z,91.31
2022-08-22T05:29:10.863Z,90.50
2022-08-22T05:30:10.849Z,90.77
2022-08-22T05:31:10.849Z,90.06
2022-08-22T05:32:10.865Z,90.86
2022-08-22T05:33:10.826Z,89.95
2022-08-22T05:34:10.806Z,90.56
2022-08-22T05:35:10.804Z,90.06
2022-08-22T05:36:10.790Z,89.95
2022-08-22T05:37:10.776Z,90.36
2022-08-22T05:38:10.781Z,90.22
2022-08-22T05:39:10.754Z,89.95
2022-08-22T05:40:10.801Z,90.32
2022-08-22T05:41:10.728Z,90.42
2022-08-22T05:42:10.717Z,90.72
2022-08-22T05:43:10.727Z,90.52
2022-08-22T05:44:10.694Z,90.42
2022-08-22T05:45:12.143Z,90.82
2022-08-22T05:46:10.687Z,90.42
2022-08-22T05:47:10.663Z,89.97
2022-08-22T05:48:10.677Z,90.42
2022-08-22T05:49:10.638Z,89.97
2022-08-22T05:50:10.637Z,89.57
2022-08-22T05:51:10.616Z,89.26
2022-08-22T05:52:10.606Z,88.92
2022-08-22T05:53:10.615Z,88.12
2022-08-22T05:54:10.605Z,87.82
2022-08-22T05:55:10.572Z,87.17
2022-08-22T05:56:10.560Z,87.17
2022-08-22T05:57:10.550Z,86.46
2022-08-22T05:58:10.536Z,87.11
2022-08-22T05:59:10.560Z,87.21
2022-08-22T06:00:10.514Z,87.27
2022-08-22T06:01:10.505Z,87.01
2022-08-22T06:02:10.595Z,87.27
2022-08-22T06:03:10.483Z,87.07
2022-08-22T06:04:10.470Z,86.97
2022-08-22T06:05:12.163Z,86.93
2022-08-22T06:06:10.447Z,85.58
2022-08-22T06:07:10.441Z,84.69
2022-08-22T06:08:10.423Z,83.21
2022-08-22T06:09:10.419Z,81.46
2022-08-22T06:10:10.416Z,80.12
2022-08-22T06:11:10.398Z,79.02
2022-08-22T06:12:15.081Z,77.98
2022-08-22T06:13:11.718Z,78.38
2022-08-22T06:14:10.358Z,78.38
2022-08-22T06:15:11.619Z,78.28
2022-08-22T06:16:10.361Z,78.08
2022-08-22T06:17:10.339Z,79.32
2022-08-22T06:18:10.325Z,79.66
2022-08-22T06:19:19.514Z,80.40
2022-08-22T06:20:11.329Z,81.34
2022-08-22T06:21:10.294Z,80.98
2022-08-22T06:22:10.280Z,81.48
2022-08-22T06:23:10.265Z,82.78
2022-08-22T06:24:10.251Z,83.12
2022-08-22T06:25:10.255Z,83.43
2022-08-22T06:26:20.759Z,83.67
2022-08-22T06:27:11.227Z,83.93
2022-08-22T06:28:10.221Z,83.53
2022-08-22T06:29:10.200Z,83.76
2022-08-22T06:30:10.191Z,83.57
2022-08-22T06:31:10.189Z,83.76
2022-08-22T06:32:10.162Z,83.37
2022-08-22T06:33:12.348Z,83.47
2022-08-22T06:34:10.146Z,83.67
2022-08-22T06:35:10.129Z,84.67
2022-08-22T06:36:10.145Z,83.87
2022-08-22T06:37:10.119Z,83.87
2022-08-22T06:38:10.095Z,83.97
2022-08-22T06:39:10.096Z,85.08
2022-08-22T06:40:10.111Z,84.77
2022-08-22T06:41:10.067Z,85.28
2022-08-22T06:42:13.343Z,85.28
2022-08-22T06:43:11.049Z,85.78
2022-08-22T06:44:10.036Z,85.68
2022-08-22T06:45:10.027Z,85.38
2022-08-22T06:46:10.004Z,85.68
2022-08-22T06:47:10.012Z,85.58
2022-08-22T06:48:10.001Z,85.68
2022-08-22T06:49:09.980Z,85.28
2022-08-22T06:50:13.570Z,85.17
2022-08-22T06:51:09.956Z,84.88
2022-08-22T06:52:09.960Z,84.88
2022-08-22T06:53:09.940Z,84.77
2022-08-22T06:54:09.919Z,84.88
2022-08-22T06:55:09.915Z,84.97
2022-08-22T06:56:09.899Z,84.77
2022-08-22T06:57:09.910Z,85.17
2022-08-22T06:58:09.877Z,85.28
2022-08-22T06:59:09.873Z,85.64
2022-08-22T07:00:09.855Z,85.30
2022-08-22T07:01:11.603Z,85.19
2022-08-22T07:02:09.931Z,84.65
2022-08-22T07:03:09.833Z,84.01
2022-08-22T07:04:09.816Z,82.84
2022-08-22T07:05:09.802Z,82.75
2022-08-22T07:06:09.794Z,82.34
2022-08-22T07:07:09.796Z,82.45
2022-08-22T07:08:09.781Z,83.18
2022-08-22T07:09:09.773Z,83.25
2022-08-22T07:10:09.747Z,83.09
2022-08-22T07:11:09.734Z,83.09
2022-08-22T07:12:09.718Z,83.29
2022-08-22T07:13:09.727Z,83.39
2022-08-22T07:14:09.699Z,83.59
2022-08-22T07:15:09.712Z,83.18
2022-08-22T07:16:09.676Z,83.39
2022-08-22T07:17:09.667Z,83.18
2022-08-22T07:18:09.681Z,83.18
2022-08-22T07:19:09.656Z,83.39
2022-08-22T07:20:09.631Z,83.53
2022-08-22T07:21:09.623Z,83.43
2022-08-22T07:22:09.624Z,83.73
2022-08-22T07:23:09.601Z,84.43
2022-08-22T07:24:09.609Z,84.43
2022-08-22T07:25:09.578Z,83.93
2022-08-22T07:26:09.578Z,84.13
2022-08-22T07:27:09.560Z,84.17
2022-08-22T07:28:09.567Z,83.73
2022-08-22T07:29:10.940Z,84.13
2022-08-22T07:30:10.009Z,83.93
2022-08-22T07:31:09.515Z,84.23
2022-08-22T07:32:09.508Z,84.74
2022-08-22T07:33:23.667Z,84.83
2022-08-22T07:34:10.488Z,84.74
2022-08-22T07:35:09.488Z,84.83
2022-08-22T07:36:09.465Z,85.03
2022-08-22T07:37:09.447Z,84.83
2022-08-22T07:38:09.438Z,84.53
2022-08-22T07:39:11.105Z,84.03
2022-08-22T07:40:09.458Z,84.13
2022-08-22T07:41:09.404Z,84.94
2022-08-22T07:42:09.390Z,84.63
2022-08-22T07:43:09.383Z,84.74
2022-08-22T07:44:09.471Z,85.14
2022-08-22T07:45:09.393Z,84.94
2022-08-22T07:46:09.350Z,84.83
2022-08-22T07:47:09.344Z,84.74
2022-08-22T07:48:09.321Z,84.49
2022-08-22T07:49:10.141Z,83.79
2022-08-22T07:50:09.344Z,83.89
2022-08-22T07:51:09.292Z,83.99
2022-08-22T07:52:09.277Z,83.79
2022-08-22T07:53:09.272Z,83.99
2022-08-22T07:54:09.257Z,84.05
2022-08-22T07:55:09.259Z,84.25
2022-08-22T07:56:09.257Z,84.15
2022-08-22T07:57:09.227Z,83.75
2022-08-22T07:58:09.213Z,83.04
2022-08-22T07:59:12.757Z,83.21
2022-08-22T08:00:09.209Z,83.15
2022-08-22T08:01:09.253Z,82.84
2022-08-22T08:02:09.169Z,82.81
2022-08-22T08:03:09.173Z,83.01
2022-08-22T08:04:09.158Z,83.01
2022-08-22T08:05:09.152Z,83.21
2022-08-22T08:06:09.126Z,82.76
2022-08-22T08:07:09.132Z,81.40
2022-08-22T08:08:09.103Z,80.90
2022-08-22T08:09:10.108Z,81.50
2022-08-22T08:10:12.895Z,81.56
2022-08-22T08:11:09.071Z,81.36
2022-08-22T08:12:09.066Z,80.86
2022-08-22T08:13:09.046Z,81.67
2022-08-22T08:14:09.045Z,82.06
2022-08-22T08:15:09.051Z,81.73
2022-08-22T08:16:09.017Z,80.42
2022-08-22T08:17:09.002Z,80.92
2022-08-22T08:18:08.998Z,81.12
2022-08-22T08:19:08.980Z,80.52
2022-08-22T08:20:08.996Z,80.62
2022-08-22T08:21:08.966Z,79.42
2022-08-22T08:22:08.953Z,79.78
2022-08-22T08:23:08.957Z,79.88
2022-08-22T08:24:08.955Z,80.68
2022-08-22T08:25:08.945Z,80.18
2022-08-22T08:26:08.910Z,79.74
2022-08-22T08:27:08.893Z,78.78
2022-08-22T08:28:09.717Z,78.28
2022-08-22T08:29:08.880Z,77.58
2022-08-22T08:30:12.222Z,77.34
2022-08-22T08:31:09.857Z,77.94
2022-08-22T08:32:08.851Z,78.04
2022-08-22T08:33:25.013Z,78.64
2022-08-22T08:34:09.821Z,78.74
2022-08-22T08:35:08.846Z,78.41
2022-08-22T08:36:08.797Z,78.20
2022-08-22T08:37:08.786Z,77.84
2022-08-22T08:38:08.788Z,78.20
2022-08-22T08:39:08.765Z,77.54
2022-08-22T08:40:08.811Z,77.40
2022-08-22T08:41:08.754Z,78.04
2022-08-22T08:42:08.764Z,78.14
2022-08-22T08:43:10.942Z,78.30
2022-08-22T08:44:08.709Z,77.84
2022-08-22T08:45:08.718Z,77.74
2022-08-22T08:46:08.728Z,77.44
2022-08-22T08:47:08.688Z,76.54
2022-08-22T08:48:08.674Z,76.94
2022-08-22T08:49:08.651Z,77.04
2022-08-22T08:50:09.511Z,77.34
2022-08-22T08:51:09.261Z,77.74
2022-08-22T08:52:08.627Z,77.44
2022-08-22T08:53:08.607Z,77.24
2022-08-22T08:54:08.600Z,77.84
2022-08-22T08:55:10.510Z,78.30
2022-08-22T08:56:10.799Z,77.60
2022-08-22T08:57:08.566Z,77.70
2022-08-22T08:58:10.284Z,78.00
2022-08-22T08:59:10.237Z,78.27
2022-08-22T09:00:08.538Z,77.97
2022-08-22T09:01:08.549Z,77.67
2022-08-22T09:02:08.526Z,77.67
2022-08-22T09:03:09.527Z,77.23
2022-08-22T09:04:15.059Z,76.33
2022-08-22T09:05:09.476Z,76.23
2022-08-22T09:06:08.467Z,75.33
2022-08-22T09:07:08.473Z,75.13
2022-08-22T09:08:11.853Z,75.23
2022-08-22T09:09:08.432Z,75.73
2022-08-22T09:10:08.439Z,75.63
2022-08-22T09:11:09.888Z,75.23
2022-08-22T09:12:08.400Z,75.93
2022-08-22T09:13:11.794Z,75.89
2022-08-22T09:14:08.394Z,77.39
2022-08-22T09:15:14.121Z,77.39
2022-08-22T09:16:10.118Z,75.59
2022-08-22T09:17:08.352Z,75.59
2022-08-22T09:18:08.335Z,75.59
2022-08-22T09:19:08.363Z,76.06
2022-08-22T09:20:15.447Z,74.76
2022-08-22T09:21:09.315Z,74.36
2022-08-22T09:22:14.629Z,74.55
2022-08-22T09:23:10.831Z,75.05
2022-08-22T09:24:08.269Z,74.76
2022-08-22T09:25:08.258Z,74.46
2022-08-22T09:26:08.244Z,72.76
2022-08-22T09:27:08.627Z,72.76
2022-08-22T09:28:08.222Z,71.66
2022-08-22T09:29:08.255Z,72.16
2022-08-22T09:30:08.199Z,72.76
2022-08-22T09:31:21.936Z,73.46
2022-08-22T09:32:13.085Z,73.16
2022-08-22T09:33:08.164Z,74.26
2022-08-22T09:34:08.166Z,73.06
2022-08-22T09:35:08.170Z,72.56
2022-08-22T09:36:12.275Z,73.75
2022-08-22T09:37:08.139Z,73.12
2022-08-22T09:38:09.134Z,74.12
2022-08-22T09:39:08.111Z,73.06
2022-08-22T09:40:08.460Z,72.92
2022-08-22T09:41:08.087Z,73.22
2022-08-22T09:42:08.213Z,72.72
2022-08-22T09:43:08.061Z,71.72
2022-08-22T09:44:08.049Z,72.42
2022-08-22T09:45:08.046Z,71.83
2022-08-22T09:46:08.060Z,71.72
2022-08-22T09:47:08.022Z,72.32
2022-08-22T09:48:08.002Z,72.09
2022-08-22T09:49:08.014Z,71.79
2022-08-22T09:50:08.019Z,71.39
2022-08-22T09:51:28.580Z,71.59
2022-08-22T09:52:15.226Z,71.29
2022-08-22T09:53:08.962Z,72.16
2022-08-22T09:54:07.940Z,72.05
2022-08-22T09:55:08.727Z,71.36
2022-08-22T09:56:11.542Z,71.86
2022-08-22T09:57:07.924Z,71.02
2022-08-22T09:58:11.234Z,71.12
2022-08-22T09:59:09.874Z,70.83
2022-08-22T10:00:07.881Z,69.92
2022-08-22T10:01:07.938Z,70.06
2022-08-22T10:02:15.455Z,70.83
2022-08-22T10:03:08.829Z,70.62
2022-08-22T10:04:07.836Z,70.62
2022-08-22T10:05:07.816Z,71.12
2022-08-22T10:06:09.226Z,70.62
2022-08-22T10:07:11.646Z,68.63
2022-08-22T10:08:07.795Z,68.43
2022-08-22T10:09:09.070Z,68.33
2022-08-22T10:10:07.758Z,68.73
2022-08-22T10:11:07.777Z,69.32
2022-08-22T10:12:12.449Z,68.36
2022-08-22T10:13:10.447Z,67.26
2022-08-22T10:14:07.717Z,67.66
2022-08-22T10:15:07.708Z,68.13
2022-08-22T10:16:07.712Z,67.43
2022-08-22T10:17:07.721Z,66.24
2022-08-22T10:18:07.674Z,67.33
2022-08-22T10:19:07.655Z,66.73
2022-08-22T10:20:07.662Z,66.24
2022-08-22T10:21:07.656Z,67.23
2022-08-22T10:22:07.627Z,66.24
2022-08-22T10:23:07.614Z,66.33
2022-08-22T10:24:07.610Z,66.13
2022-08-22T10:25:07.652Z,67.20
2022-08-22T10:26:07.592Z,67.40
2022-08-22T10:27:07.589Z,67.60
2022-08-22T10:28:07.563Z,66.90
2022-08-22T10:29:07.557Z,67.20
2022-08-22T10:30:07.563Z,68.00
2022-08-22T10:31:07.539Z,65.41
2022-08-22T10:32:07.846Z,65.41
2022-08-22T10:33:08.499Z,65.50
2022-08-22T10:34:07.963Z,65.61
2022-08-22T10:35:07.950Z,65.50
2022-08-22T10:36:07.479Z,65.41
2022-08-22T10:37:07.473Z,65.80
2022-08-22T10:38:07.457Z,65.67
2022-08-22T10:39:11.023Z,66.17
2022-08-22T10:40:07.479Z,68.07
2022-08-22T10:41:09.485Z,67.13
2022-08-22T10:42:07.423Z,67.54
2022-08-22T10:43:07.412Z,67.96
2022-08-22T10:44:07.442Z,68.23
2022-08-22T10:45:07.406Z,69.36
2022-08-22T10:46:12.583Z,70.12
2022-08-22T10:47:08.383Z,69.92
2022-08-22T10:48:08.999Z,68.13
2022-08-22T10:49:07.964Z,66.47
2022-08-22T10:50:08.760Z,68.23
2022-08-22T10:51:08.911Z,68.13
2022-08-22T10:52:15.282Z,68.13
2022-08-22T10:53:08.303Z,67.24
2022-08-22T10:54:07.276Z,67.33
2022-08-22T10:55:09.839Z,65.24
2022-08-22T10:56:07.251Z,65.54
2022-08-22T10:57:07.256Z,65.05
2022-08-22T10:58:07.240Z,65.84
2022-08-22T10:59:07.220Z,66.11
2022-08-22T11:00:07.217Z,66.01
2022-08-22T11:01:38.252Z,65.31
2022-08-22T11:02:08.302Z,66.11
2022-08-22T11:03:10.724Z,64.78
2022-08-22T11:04:12.048Z,64.09
2022-08-22T11:05:07.150Z,64.15
2022-08-22T11:06:07.166Z,64.15
2022-08-22T11:07:07.682Z,65.25
2022-08-22T11:08:07.150Z,65.45
2022-08-22T11:09:07.109Z,66.71
2022-08-22T11:10:07.101Z,63.43
2022-08-22T11:11:07.114Z,62.93
2022-08-22T11:12:07.109Z,63.30
2022-08-22T11:13:07.100Z,66.48
2022-08-22T11:14:07.056Z,66.05
2022-08-22T11:15:07.043Z,63.96
2022-08-22T11:16:07.051Z,61.38
2022-08-22T11:17:23.564Z,60.12
2022-08-22T11:18:08.021Z,60.02
2022-08-22T11:19:14.989Z,61.71
2022-08-22T11:20:07.994Z,62.80
2022-08-22T11:21:07.203Z,63.00
2022-08-22T11:22:06.971Z,61.58
2022-08-22T11:23:06.972Z,61.78
2022-08-22T11:24:06.939Z,63.27
2022-08-22T11:25:07.930Z,60.98
2022-08-22T11:26:06.928Z,61.78
2022-08-22T11:27:07.324Z,59.86
2022-08-22T11:28:07.927Z,59.99
2022-08-22T11:29:13.688Z,59.30
2022-08-22T11:30:07.891Z,58.10
2022-08-22T11:31:07.223Z,59.30
2022-08-22T11:32:08.043Z,59.07
2022-08-22T11:33:06.850Z,60.06
2022-08-22T11:34:06.857Z,58.84
2022-08-22T11:35:09.232Z,59.14
2022-08-22T11:36:06.816Z,59.80
2022-08-22T11:37:11.105Z,58.51
2022-08-22T11:38:10.904Z,57.25
2022-08-22T11:39:13.729Z,58.12
2022-08-22T11:40:07.832Z,57.23
2022-08-22T11:41:06.759Z,57.20
2022-08-22T11:42:06.761Z,58.51
2022-08-22T11:43:07.507Z,57.99
2022-08-22T11:44:07.742Z,58.09
2022-08-22T11:45:06.726Z,56.93
2022-08-22T11:46:06.705Z,57.92
2022-08-22T11:47:06.693Z,58.09
2022-08-22T11:48:06.699Z,59.78
2022-08-22T11:49:06.684Z,57.99
2022-08-22T11:50:10.710Z,58.69
2022-08-22T11:51:13.167Z,58.46
2022-08-22T11:52:07.641Z,57.57
2022-08-22T11:53:07.535Z,58.95
2022-08-22T11:54:06.637Z,59.75
2022-08-22T11:55:07.250Z,58.06
2022-08-22T11:56:06.609Z,56.28
2022-08-22T11:57:06.581Z,56.11
2022-08-22T11:58:06.636Z,54.45
2022-08-22T11:59:06.573Z,55.83
2022-08-22T12:00:06.568Z,57.75
2022-08-22T12:01:06.554Z,58.32
2022-08-22T12:02:08.742Z,58.72
2022-08-22T12:03:06.520Z,58.94
2022-08-22T12:04:06.563Z,58.64
2022-08-22T12:05:06.499Z,58.15
2022-08-22T12:06:06.500Z,58.34
2022-08-22T12:07:06.504Z,57.95
2022-08-22T12:08:06.469Z,58.54
2022-08-22T12:09:06.464Z,60.03
2022-08-22T12:10:06.456Z,61.15
2022-08-22T12:11:07.435Z,60.46
2022-08-22T12:12:06.443Z,58.77
2022-08-22T12:13:06.427Z,56.09
2022-08-22T12:14:06.816Z,55.99
2022-08-22T12:15:09.090Z,56.49
2022-08-22T12:16:06.413Z,54.80
2022-08-22T12:17:06.371Z,54.60
2022-08-22T12:18:06.372Z,56.32
2022-08-22T12:19:06.366Z,56.49
2022-08-22T12:20:16.730Z,56.38
2022-08-22T12:21:07.353Z,56.41
2022-08-22T12:22:06.314Z,57.28
2022-08-22T12:23:06.321Z,59.09
2022-08-22T12:24:11.062Z,58.60
2022-08-22T12:25:07.281Z,57.60
2022-08-22T12:26:11.068Z,58.30
2022-08-22T12:27:07.781Z,58.37
2022-08-22T12:28:06.254Z,57.58
2022-08-22T12:29:15.420Z,59.17
2022-08-22T12:30:12.890Z,60.28
2022-08-22T12:31:07.219Z,58.37
2022-08-22T12:32:06.213Z,57.87
2022-08-22T12:33:06.205Z,58.67
2022-08-22T12:34:06.491Z,58.10
2022-08-22T12:35:13.908Z,58.87
2022-08-22T12:36:09.525Z,57.98
2022-08-22T12:37:07.154Z,58.47
2022-08-22T12:38:28.075Z,59.86
2022-08-22T12:39:07.663Z,60.06
2022-08-22T12:40:06.197Z,60.58
2022-08-22T12:41:07.916Z,57.87
2022-08-22T12:42:06.107Z,58.57
2022-08-22T12:43:06.531Z,57.68
2022-08-22T12:44:06.102Z,56.19
2022-08-22T12:45:06.063Z,55.49
2022-08-22T12:46:06.070Z,54.50
2022-08-22T12:47:07.079Z,54.50
2022-08-22T12:48:06.041Z,54.90